Raleigh, NC (27603)

2:31 PM EDT op 20 augustus 2014 (GMT -0400)
Colonial Heights | Change Station
CLOSE
Current Station
Persoonlijk weerstation
Location: Raleigh, NC
Geometrische hoogte: 305 ft
Nabije weerstations

Hoogte 305 ft 35.69 °N, 78.67 °W | Updated 12 seconds ago

Scattered Clouds
Licht bewolkt
88.2 °F
Voelt als 100 °F
N
1.0
Wind Variabel Wind van ZZO
Gusts 2.0 mijl/u

Vandaag
Hoog -- | Laag -- °F
--% Kans op neerslag
Gisteren
Hoog -- | Laag -- °F
Precip. -- inches
6:37 AM 7:57 PM
Afnemende halvemaan, 20% visible
Druk 29.96 inches
Zicht 10.0 mijlen
Wolken Licht bewolkt 3000 ft
Licht bewolkt 18000 ft
Licht bewolkt 25000 ft
Warmteindex 100 °F
Dauwpunt 77 °F
Vochtigheid 69%
Neerslag 0.00 inches
Dikte sneeuw Niet beschikbaar.
UV 9 van de 12
Pollen 7.60 van de 12
Ozon Goed
PM2.5 Goed
Flu Activity Niet beschikbaar.
METAR KRDU 201751Z 13004KT 10SM SCT030 SCT180 SCT250 30/21 A2998 RMK AO2 SLP145 CB DSNT S-SW T03000211 10306 20228 58016

More Conditions Fewer Conditions

Druk 29.96 inches
Zicht 10.0 mijlen
Wolken Licht bewolkt 3000 ft
Licht bewolkt 18000 ft
Licht bewolkt 25000 ft
Warmteindex 100 °F
Dauwpunt 77 °F
Vochtigheid 69%
Neerslag 0.00 inches
Dikte sneeuw Niet beschikbaar.
UV 9 van de 12
Pollen 7.60 van de 12
Ozon Goed
PM2.5 Goed
Flu Activity Niet beschikbaar.
METAR KRDU 201751Z 13004KT 10SM SCT030 SCT180 SCT250 30/21 A2998 RMK AO2 SLP145 CB DSNT S-SW T03000211 10306 20228 58016

More Conditions Fewer Conditions

10-Day Weather Forecast

Almanac

Astronomie

Aug. 20, 2014 Opkomst Ondergang
Werkelijke tijd 6:37 AM EDT 7:57 PM EDT
Burgerlijke schemering 6:10 AM EDT 8:24 PM EDT
Nautische schemering 5:38 AM EDT 8:56 PM EDT
Astronomische schemering 5:05 AM EDT 9:29 PM EDT
Maan 2:19 AM EDT 4:38 PM EDT
Golflengte van het zichtbare licht 14h 14m
Daglengte
13h 20m
Tomorrow will be 2m 2s shorter.
Afnemende halvemaan, 20% of the Moon is Illuminated
Vandaag
Afnemende halvemaan
aug 25
Nieuw
sep 2
Eerste kwartier
sep 8
Volle maan
sep 15
Laatste kwartier

Extremen vandaag

State Highs State Lows

Community

WunderPhotos

Upload Photos

1,745,707 foto’s ge-upload!

WunderBlogs® & News

By Dr. Jeff Masters
Director of Meteorology, Weather Underground
By Kari Strenfel
Meteorologist, Weather Underground
By Christopher C. Burt
Weather Historian, Weather Underground
August 20, 2014
August 20, 2014
August 20, 2014

Nearby

Luchtkwaliteit

  Luchtkwaliteit LK-index Verontreinigende stof
Actueel Goed
PM2.5
Actueel Goed
OZONE
woensdag Matig
PM2.5
woensdag Goed
OZONE
donderdag Matig
PM2.5
donderdag Goed
OZONE
vrijdag Matig
PM2.5
vrijdag Goed
OZONE
zaterdag Goed
PM2.5
zaterdag Goed
OZONE

Dikte sneeuw

Station Depth Geometrische hoogte
Er is geen verse sneeuw gerapporteerd.

Aardbevingen

Stad Distance Mag. Time & Date
No recent earthquake activity has been reported nearby.
Minimum magnitude displayed is 2.5.

Watertemperatuur langs de kust

Plaats Temperatuur
Geen meldingen van stations

Nabije weerstations